»·PEaware :: DAL968 KRNO-KSFO

DAL968 :: KRNO-KSFO

FLIGHT INFORMATION

Flight Status: Arrived
Operator:
Delta Air Lines
More flights by this operator :: More flights under this callsign
Pilot: Ben F. (13029)
Aircraft: BOEING 737-700
(B737)
More flights by this aircraft type
Origin: KRNO Reno/Tahoe Intl
United States
Destination: KSFO San Francisco Intl
United States
More flights between these airports :: More routes between these airports
Route: ZEFFR6 MRLET LEGGS BDEGA3
File this flight plan on PilotEdge
Remarks: RMK / SIMBRIEF
Altitude:
(Current/Filed)
32,000ft
Speed:
(Current/Filed)
466kts
Departed: 09-Aug-19 02:07 PM
Arrived: 09-Aug-19 02:58 PM
Distance/Time
Traveled:
167nm/0:51
Distance/Time
To Go:
Arrived

Flight Plot

Page will automatically refresh every two minutes.

Flight plan parsing failed; only flown route is shown


Map Options




Map Legend


Flown Route
Filed Route
Departure Airport
Arrival Airport
Navaid (VOR, NDB)
Fix

Horizontal Profiles

Position Reports

Time Latitude Longitude Heading Altitude Ground
Speed
09-Aug-19 13:44 39.504493 -119.772343 320 4417ft 0kts
09-Aug-19 13:45 39.504493 -119.772343 320 4417ft 0kts
09-Aug-19 13:46 39.504493 -119.772343 320 4417ft 0kts
09-Aug-19 13:47 39.504493 -119.772343 320 4417ft 0kts
09-Aug-19 13:48 39.504493 -119.772343 320 4417ft 0kts
09-Aug-19 13:49 39.504493 -119.772343 320 4417ft 0kts
09-Aug-19 13:50 39.504493 -119.772343 320 4417ft 0kts
09-Aug-19 13:51 39.504493 -119.772343 320 4417ft 0kts
09-Aug-19 13:52 39.504493 -119.772343 320 4417ft 0kts
09-Aug-19 13:53 39.504493 -119.772343 320 4417ft 0kts
09-Aug-19 13:54 39.504493 -119.772343 320 4417ft 0kts
09-Aug-19 13:55 39.504493 -119.772343 320 4417ft 0kts
09-Aug-19 13:56 39.504493 -119.772343 320 4417ft 0kts
09-Aug-19 13:56 39.504120 -119.772028 355 4417ft 2kts
09-Aug-19 13:58 39.503734 -119.772505 92 4417ft 1kts
09-Aug-19 13:58 39.503735 -119.772538 91 4417ft 0kts
09-Aug-19 14:00 39.503735 -119.772538 91 4417ft 0kts
09-Aug-19 14:01 39.503735 -119.772538 91 4417ft 0kts
09-Aug-19 14:01 39.503735 -119.772538 91 4417ft 0kts
09-Aug-19 14:02 39.505387 -119.771492 359 4417ft 20kts
09-Aug-19 14:04 39.513382 -119.771446 12 4417ft 17kts
09-Aug-19 14:04 39.513735 -119.770470 91 4417ft 0kts
09-Aug-19 14:05 39.513187 -119.769228 176 4417ft 14kts
09-Aug-19 14:06 39.479333 -119.768245 174 5352ft 180kts
09-Aug-19 14:07 39.421491 -119.769703 180 7426ft 230kts
09-Aug-19 14:08 39.352621 -119.769635 180 9695ft 280kts
09-Aug-19 14:09 39.269565 -119.783851 194 12733ft 323kts
09-Aug-19 14:10 39.184013 -119.818891 217 16332ft 330kts
09-Aug-19 14:11 39.144624 -119.924243 267 19555ft 354kts
09-Aug-19 14:12 39.163998 -120.052634 276 22417ft 373kts
09-Aug-19 14:13 39.185544 -120.185723 276 24960ft 386kts
09-Aug-19 14:14 39.207979 -120.323478 275 27264ft 399kts
09-Aug-19 14:15 39.231279 -120.465582 275 29317ft 411kts
09-Aug-19 14:16 39.255426 -120.611762 275 31196ft 422kts
09-Aug-19 14:17 39.280341 -120.761822 274 32191ft 435kts
09-Aug-19 14:18 39.305988 -120.914467 274 32120ft 434kts
09-Aug-19 14:19 39.310792 -121.066099 253 32091ft 419kts
09-Aug-19 14:20 39.266166 -121.202421 230 32090ft 410kts
09-Aug-19 14:21 39.192425 -121.313249 225 32046ft 408kts
09-Aug-19 14:22 39.118250 -121.424273 225 31995ft 408kts
09-Aug-19 14:23 39.044523 -121.535011 225 31992ft 408kts
09-Aug-19 14:24 38.971148 -121.645389 227 32001ft 403kts
09-Aug-19 14:25 38.898268 -121.755038 227 32007ft 401kts
09-Aug-19 14:26 38.825651 -121.864577 227 32020ft 400kts
09-Aug-19 14:27 38.753675 -121.973312 228 31698ft 400kts
09-Aug-19 14:28 38.682511 -122.080976 228 30710ft 394kts
09-Aug-19 14:29 38.612101 -122.187644 228 29710ft 389kts
09-Aug-19 14:30 38.542954 -122.292542 228 28705ft 384kts
09-Aug-19 14:31 38.474569 -122.396429 228 28025ft 379kts
09-Aug-19 14:32 38.407451 -122.496873 227 27277ft 377kts
09-Aug-19 14:33 38.339444 -122.597427 228 26060ft 372kts
09-Aug-19 14:34 38.270260 -122.692989 216 24317ft 363kts
09-Aug-19 14:35 38.178680 -122.740280 188 22377ft 360kts
09-Aug-19 14:36 38.080850 -122.726263 169 20193ft 356kts
09-Aug-19 14:37 37.985930 -122.698272 169 17972ft 346kts
09-Aug-19 14:38 37.894937 -122.664600 153 15758ft 341kts
09-Aug-19 14:39 37.821199 -122.590481 142 13571ft 334kts
09-Aug-19 14:40 37.751045 -122.515990 142 11513ft 325kts
09-Aug-19 14:41 37.684562 -122.445356 142 10860ft 290kts
09-Aug-19 14:42 37.622728 -122.379713 142 10846ft 290kts
09-Aug-19 14:43 37.553592 -122.328857 155 10774ft 286kts
09-Aug-19 14:44 37.482451 -122.283553 152 11056ft 289kts
09-Aug-19 14:45 37.434217 -122.203502 123 9946ft 281kts
09-Aug-19 14:46 37.396224 -122.121656 120 8632ft 265kts
09-Aug-19 14:47 37.399809 -122.034382 52 7128ft 255kts
09-Aug-19 14:48 37.455574 -121.995715 350 6060ft 217kts
09-Aug-19 14:49 37.491098 -122.040883 267 5198ft 186kts
09-Aug-19 14:50 37.504948 -122.102224 293 4569ft 175kts
09-Aug-19 14:51 37.526331 -122.155652 296 3524ft 170kts
09-Aug-19 14:52 37.547306 -122.205579 296 2618ft 140kts
09-Aug-19 14:53 37.563822 -122.244733 295 1902ft 122kts
09-Aug-19 14:54 37.579804 -122.282991 295 1456ft 127kts
09-Aug-19 14:55 37.596071 -122.320451 293 729ft 117kts
09-Aug-19 14:56 37.611239 -122.356899 292 100ft 117kts
09-Aug-19 14:57 37.618711 -122.375176 299 21ft 22kts
09-Aug-19 14:58 37.618944 -122.378366 266 27ft 13kts
09-Aug-19 14:59 37.616388 -122.379782 208 30ft 13kts
09-Aug-19 15:00 37.615638 -122.382530 227 30ft 6kts
09-Aug-19 15:01 37.615515 -122.382693 225 30ft 0kts
09-Aug-19 15:02 37.615515 -122.382693 225 30ft 0kts
09-Aug-19 15:03 37.615515 -122.382693 225 30ft 0kts
09-Aug-19 15:04 37.615515 -122.382693 225 30ft 0kts
09-Aug-19 15:05 37.615515 -122.382693 225 30ft 0kts

Navigation Log

Ident Type
Flight plan parsing failed, navigation log unavailable